sensor_id;sensor_type;location;lat;lon;timestamp;pressure;altitude;pressure_sealevel;temperature;humidity
31088;BME280;17745;55.914;37.554;2024-01-07T00:01:14;99259.16;;;-18.00;51.78
31088;BME280;17745;55.914;37.554;2024-01-07T00:03:42;99263.63;;;-18.05;51.71
31088;BME280;17745;55.914;37.554;2024-01-07T00:06:09;99264.84;;;-17.97;51.52
31088;BME280;17745;55.914;37.554;2024-01-07T00:08:40;99262.78;;;-18.06;51.57
31088;BME280;17745;55.914;37.554;2024-01-07T00:11:07;99274.75;;;-18.09;51.63
31088;BME280;17745;55.914;37.554;2024-01-07T00:13:37;99275.75;;;-18.14;51.43
31088;BME280;17745;55.914;37.554;2024-01-07T00:16:06;99274.50;;;-18.43;51.56
31088;BME280;17745;55.914;37.554;2024-01-07T00:18:34;99282.03;;;-18.42;51.74
31088;BME280;17745;55.914;37.554;2024-01-07T00:21:01;99288.16;;;-18.47;51.68
31088;BME280;17745;55.914;37.554;2024-01-07T00:23:28;99282.41;;;-18.51;51.62
31088;BME280;17745;55.914;37.554;2024-01-07T00:25:58;99296.16;;;-18.57;51.60
31088;BME280;17745;55.914;37.554;2024-01-07T00:28:25;99280.88;;;-18.74;51.93
31088;BME280;17745;55.914;37.554;2024-01-07T00:30:54;99282.66;;;-18.76;51.81
31088;BME280;17745;55.914;37.554;2024-01-07T00:33:22;99282.69;;;-18.57;51.34
31088;BME280;17745;55.914;37.554;2024-01-07T00:35:49;99298.41;;;-18.50;51.21
31088;BME280;17745;55.914;37.554;2024-01-07T00:38:17;99300.41;;;-18.59;51.35
31088;BME280;17745;55.914;37.554;2024-01-07T00:40:44;99291.72;;;-18.51;51.12
31088;BME280;17745;55.914;37.554;2024-01-07T00:43:12;99293.94;;;-18.85;51.44
31088;BME280;17745;55.914;37.554;2024-01-07T00:45:39;99300.19;;;-18.94;51.63
31088;BME280;17745;55.914;37.554;2024-01-07T00:48:08;99279.91;;;-18.92;51.42
31088;BME280;17745;55.914;37.554;2024-01-07T00:50:36;99296.06;;;-18.97;51.34
31088;BME280;17745;55.914;37.554;2024-01-07T00:53:03;99305.38;;;-18.97;51.14
31088;BME280;17745;55.914;37.554;2024-01-07T00:55:31;99297.13;;;-19.01;50.96
31088;BME280;17745;55.914;37.554;2024-01-07T00:58:02;99314.75;;;-19.21;51.30
31088;BME280;17745;55.914;37.554;2024-01-07T01:00:32;99327.84;;;-19.12;50.97
31088;BME280;17745;55.914;37.554;2024-01-07T01:03:00;99333.00;;;-19.15;50.99
31088;BME280;17745;55.914;37.554;2024-01-07T01:05:32;99336.09;;;-19.75;52.16
31088;BME280;17745;55.914;37.554;2024-01-07T01:08:01;99341.91;;;-19.50;51.64
31088;BME280;17745;55.914;37.554;2024-01-07T01:10:31;99325.88;;;-19.25;50.93
31088;BME280;17745;55.914;37.554;2024-01-07T01:13:00;99331.78;;;-19.27;50.88
31088;BME280;17745;55.914;37.554;2024-01-07T01:15:28;99341.97;;;-19.30;50.92
31088;BME280;17745;55.914;37.554;2024-01-07T01:17:57;99339.34;;;-19.27;50.74
31088;BME280;17745;55.914;37.554;2024-01-07T01:20:25;99354.41;;;-19.25;50.65
31088;BME280;17745;55.914;37.554;2024-01-07T01:22:58;99363.53;;;-19.43;50.81
31088;BME280;17745;55.914;37.554;2024-01-07T01:25:27;99365.75;;;-19.35;50.63
31088;BME280;17745;55.914;37.554;2024-01-07T01:27:55;99362.34;;;-19.34;50.54
31088;BME280;17745;55.914;37.554;2024-01-07T01:30:23;99364.03;;;-19.35;50.49
31088;BME280;17745;55.914;37.554;2024-01-07T01:32:52;99358.75;;;-19.29;50.36
31088;BME280;17745;55.914;37.554;2024-01-07T01:35:20;99368.44;;;-19.40;50.52
31088;BME280;17745;55.914;37.554;2024-01-07T01:37:48;99371.38;;;-19.51;50.62
31088;BME280;17745;55.914;37.554;2024-01-07T01:40:18;99380.19;;;-19.39;50.33
31088;BME280;17745;55.914;37.554;2024-01-07T01:42:46;99390.09;;;-19.34;50.29
31088;BME280;17745;55.914;37.554;2024-01-07T01:45:14;99396.94;;;-19.38;50.28
31088;BME280;17745;55.914;37.554;2024-01-07T01:47:42;99397.19;;;-19.44;50.33
31088;BME280;17745;55.914;37.554;2024-01-07T01:50:11;99406.53;;;-19.46;50.24
31088;BME280;17745;55.914;37.554;2024-01-07T01:52:39;99416.78;;;-19.51;50.27
31088;BME280;17745;55.914;37.554;2024-01-07T01:55:10;99415.00;;;-19.49;50.11
31088;BME280;17745;55.914;37.554;2024-01-07T01:57:39;99419.41;;;-19.54;50.25
31088;BME280;17745;55.914;37.554;2024-01-07T02:00:08;99427.78;;;-19.53;50.18
31088;BME280;17745;55.914;37.554;2024-01-07T02:02:37;99428.00;;;-19.60;50.21
31088;BME280;17745;55.914;37.554;2024-01-07T02:05:04;99425.16;;;-19.74;50.33
31088;BME280;17745;55.914;37.554;2024-01-07T02:07:31;99445.13;;;-19.68;50.12
31088;BME280;17745;55.914;37.554;2024-01-07T02:10:00;99440.28;;;-19.74;50.04
31088;BME280;17745;55.914;37.554;2024-01-07T02:12:29;99446.03;;;-19.71;49.91
31088;BME280;17745;55.914;37.554;2024-01-07T02:15:02;99450.59;;;-19.80;50.05
31088;BME280;17745;55.914;37.554;2024-01-07T02:17:30;99439.84;;;-19.86;49.94
31088;BME280;17745;55.914;37.554;2024-01-07T02:19:58;99448.31;;;-19.88;49.87
31088;BME280;17745;55.914;37.554;2024-01-07T02:22:25;99461.69;;;-19.86;49.77
31088;BME280;17745;55.914;37.554;2024-01-07T02:24:55;99464.06;;;-19.81;49.70
31088;BME280;17745;55.914;37.554;2024-01-07T02:27:23;99472.03;;;-19.92;49.83
31088;BME280;17745;55.914;37.554;2024-01-07T02:29:50;99472.75;;;-19.90;49.69
31088;BME280;17745;55.914;37.554;2024-01-07T02:32:21;99465.50;;;-19.98;49.91
31088;BME280;17745;55.914;37.554;2024-01-07T02:34:48;99473.50;;;-20.12;50.04
31088;BME280;17745;55.914;37.554;2024-01-07T02:37:16;99471.00;;;-20.12;49.95
31088;BME280;17745;55.914;37.554;2024-01-07T02:39:44;99470.69;;;-20.03;49.70
31088;BME280;17745;55.914;37.554;2024-01-07T02:42:13;99486.75;;;-20.05;49.76
31088;BME280;17745;55.914;37.554;2024-01-07T02:44:40;99486.88;;;-20.10;49.80
31088;BME280;17745;55.914;37.554;2024-01-07T02:47:08;99491.00;;;-20.07;49.65
31088;BME280;17745;55.914;37.554;2024-01-07T02:49:35;99495.47;;;-20.43;50.29
31088;BME280;17745;55.914;37.554;2024-01-07T02:52:04;99491.84;;;-20.34;50.05
31088;BME280;17745;55.914;37.554;2024-01-07T02:54:33;99487.28;;;-20.22;49.78
31088;BME280;17745;55.914;37.554;2024-01-07T02:57:00;99484.91;;;-20.27;49.72
31088;BME280;17745;55.914;37.554;2024-01-07T02:59:29;99477.22;;;-20.49;49.86
31088;BME280;17745;55.914;37.554;2024-01-07T03:01:57;99494.81;;;-20.48;49.93
31088;BME280;17745;55.914;37.554;2024-01-07T03:04:24;99502.78;;;-20.35;49.63
31088;BME280;17745;55.914;37.554;2024-01-07T03:06:52;99502.12;;;-20.40;49.71
31088;BME280;17745;55.914;37.554;2024-01-07T03:09:20;99506.91;;;-20.59;49.89
31088;BME280;17745;55.914;37.554;2024-01-07T03:11:48;99493.44;;;-20.58;49.72
31088;BME280;17745;55.914;37.554;2024-01-07T03:14:15;99490.94;;;-21.15;50.17
31088;BME280;17745;55.914;37.554;2024-01-07T03:16:50;99496.09;;;-21.50;50.68
31088;BME280;17745;55.914;37.554;2024-01-07T03:19:18;99505.97;;;-21.44;50.78
31088;BME280;17745;55.914;37.554;2024-01-07T03:21:47;99517.56;;;-21.38;50.66
31088;BME280;17745;55.914;37.554;2024-01-07T03:24:15;99511.84;;;-21.13;49.93
31088;BME280;17745;55.914;37.554;2024-01-07T03:26:43;99531.56;;;-21.27;50.07
31088;BME280;17745;55.914;37.554;2024-01-07T03:32:04;99532.00;;;-21.45;50.00
31088;BME280;17745;55.914;37.554;2024-01-07T03:34:38;99536.31;;;-21.80;50.75
31088;BME280;17745;55.914;37.554;2024-01-07T03:37:19;99540.75;;;-21.90;50.74
31088;BME280;17745;55.914;37.554;2024-01-07T03:39:57;99541.31;;;-21.48;50.05
31088;BME280;17745;55.914;37.554;2024-01-07T03:42:32;99546.00;;;-21.66;50.34
31088;BME280;17745;55.914;37.554;2024-01-07T03:45:19;99549.94;;;-21.57;49.92
31088;BME280;17745;55.914;37.554;2024-01-07T03:47:55;99548.00;;;-21.47;49.51
31088;BME280;17745;55.914;37.554;2024-01-07T03:50:28;99565.63;;;-21.49;49.44
31088;BME280;17745;55.914;37.554;2024-01-07T03:52:59;99564.72;;;-21.46;49.29
31088;BME280;17745;55.914;37.554;2024-01-07T03:55:26;99554.69;;;-21.46;49.28
31088;BME280;17745;55.914;37.554;2024-01-07T03:57:57;99550.59;;;-21.50;49.27
31088;BME280;17745;55.914;37.554;2024-01-07T04:00:26;99557.97;;;-21.44;49.10
31088;BME280;17745;55.914;37.554;2024-01-07T04:02:59;99566.47;;;-21.48;49.26
31088;BME280;17745;55.914;37.554;2024-01-07T04:05:31;99570.12;;;-21.60;49.18
31088;BME280;17745;55.914;37.554;2024-01-07T04:08:03;99576.03;;;-21.63;49.04
31088;BME280;17745;55.914;37.554;2024-01-07T04:10:33;99590.19;;;-21.59;48.89
31088;BME280;17745;55.914;37.554;2024-01-07T04:13:02;99585.22;;;-21.62;48.93
31088;BME280;17745;55.914;37.554;2024-01-07T04:15:32;99604.53;;;-21.62;48.82
31088;BME280;17745;55.914;37.554;2024-01-07T04:18:02;99603.59;;;-21.60;48.76
31088;BME280;17745;55.914;37.554;2024-01-07T04:20:36;99610.47;;;-21.65;48.80
31088;BME280;17745;55.914;37.554;2024-01-07T04:23:04;99594.72;;;-21.72;48.87
31088;BME280;17745;55.914;37.554;2024-01-07T04:25:31;99602.19;;;-21.68;48.77
31088;BME280;17745;55.914;37.554;2024-01-07T04:28:00;99601.25;;;-21.99;49.21
31088;BME280;17745;55.914;37.554;2024-01-07T04:30:29;99599.06;;;-21.78;48.85
31088;BME280;17745;55.914;37.554;2024-01-07T04:32:57;99593.22;;;-21.79;48.91
31088;BME280;17745;55.914;37.554;2024-01-07T04:35:27;99600.78;;;-21.79;48.85
31088;BME280;17745;55.914;37.554;2024-01-07T04:37:54;99601.66;;;-21.81;48.71
31088;BME280;17745;55.914;37.554;2024-01-07T04:40:22;99604.41;;;-21.91;48.80
31088;BME280;17745;55.914;37.554;2024-01-07T04:42:52;99603.56;;;-21.91;48.76
31088;BME280;17745;55.914;37.554;2024-01-07T04:45:20;99607.72;;;-21.89;48.76
31088;BME280;17745;55.914;37.554;2024-01-07T04:47:48;99618.81;;;-21.99;48.85
31088;BME280;17745;55.914;37.554;2024-01-07T04:50:16;99622.78;;;-21.89;48.62
31088;BME280;17745;55.914;37.554;2024-01-07T04:52:47;99628.00;;;-21.98;48.70
31088;BME280;17745;55.914;37.554;2024-01-07T04:55:14;99631.31;;;-21.96;48.59
31088;BME280;17745;55.914;37.554;2024-01-07T04:57:42;99631.53;;;-22.05;48.65
31088;BME280;17745;55.914;37.554;2024-01-07T05:00:10;99633.19;;;-22.04;48.59
31088;BME280;17745;55.914;37.554;2024-01-07T05:02:40;99644.84;;;-22.02;48.52
31088;BME280;17745;55.914;37.554;2024-01-07T05:05:07;99653.19;;;-22.01;48.60
31088;BME280;17745;55.914;37.554;2024-01-07T05:07:37;99662.47;;;-22.03;48.65
31088;BME280;17745;55.914;37.554;2024-01-07T05:10:07;99671.56;;;-21.97;48.49
31088;BME280;17745;55.914;37.554;2024-01-07T05:12:38;99674.13;;;-22.01;48.63
31088;BME280;17745;55.914;37.554;2024-01-07T05:15:07;99681.50;;;-21.93;48.57
31088;BME280;17745;55.914;37.554;2024-01-07T05:17:36;99693.12;;;-21.89;48.65
31088;BME280;17745;55.914;37.554;2024-01-07T05:20:04;99687.16;;;-21.84;48.53
31088;BME280;17745;55.914;37.554;2024-01-07T05:22:32;99689.00;;;-21.91;48.57
31088;BME280;17745;55.914;37.554;2024-01-07T05:25:01;99695.84;;;-21.98;48.66
31088;BME280;17745;55.914;37.554;2024-01-07T05:27:31;99698.81;;;-22.20;48.77
31088;BME280;17745;55.914;37.554;2024-01-07T05:30:13;99714.38;;;-22.04;48.55
31088;BME280;17745;55.914;37.554;2024-01-07T05:32:41;99715.03;;;-21.95;48.48
31088;BME280;17745;55.914;37.554;2024-01-07T05:35:09;99724.31;;;-21.99;48.48
31088;BME280;17745;55.914;37.554;2024-01-07T05:37:40;99720.84;;;-21.92;48.36
31088;BME280;17745;55.914;37.554;2024-01-07T05:40:08;99721.69;;;-21.93;48.31
31088;BME280;17745;55.914;37.554;2024-01-07T05:42:38;99720.69;;;-22.25;48.67
31088;BME280;17745;55.914;37.554;2024-01-07T05:45:15;99728.94;;;-22.20;48.46
31088;BME280;17745;55.914;37.554;2024-01-07T05:47:47;99723.84;;;-22.17;48.28
31088;BME280;17745;55.914;37.554;2024-01-07T05:50:15;99727.91;;;-22.09;48.23
31088;BME280;17745;55.914;37.554;2024-01-07T05:52:44;99716.44;;;-22.21;48.41
31088;BME280;17745;55.914;37.554;2024-01-07T05:55:13;99727.78;;;-22.46;48.54
31088;BME280;17745;55.914;37.554;2024-01-07T05:57:45;99729.16;;;-22.29;48.44
31088;BME280;17745;55.914;37.554;2024-01-07T06:02:55;99755.84;;;-22.25;48.29
31088;BME280;17745;55.914;37.554;2024-01-07T06:05:40;99747.56;;;-22.30;48.35
31088;BME280;17745;55.914;37.554;2024-01-07T06:08:30;99750.75;;;-22.22;48.18
31088;BME280;17745;55.914;37.554;2024-01-07T06:11:04;99755.72;;;-22.19;48.26
31088;BME280;17745;55.914;37.554;2024-01-07T06:13:36;99760.84;;;-22.25;48.26
31088;BME280;17745;55.914;37.554;2024-01-07T06:16:06;99751.69;;;-22.26;48.21
31088;BME280;17745;55.914;37.554;2024-01-07T06:18:36;99755.91;;;-22.28;48.15
31088;BME280;17745;55.914;37.554;2024-01-07T06:21:05;99744.28;;;-22.32;48.13
31088;BME280;17745;55.914;37.554;2024-01-07T06:23:37;99734.97;;;-22.29;48.11
31088;BME280;17745;55.914;37.554;2024-01-07T06:26:06;99730.66;;;-22.22;47.96
31088;BME280;17745;55.914;37.554;2024-01-07T06:28:41;99735.47;;;-22.11;47.83
31088;BME280;17745;55.914;37.554;2024-01-07T06:31:13;99748.75;;;-22.06;47.93
31088;BME280;17745;55.914;37.554;2024-01-07T06:33:46;99755.25;;;-21.97;47.98
31088;BME280;17745;55.914;37.554;2024-01-07T06:36:18;99751.03;;;-21.95;47.96
31088;BME280;17745;55.914;37.554;2024-01-07T06:42:28;99775.25;;;-21.91;47.86
31088;BME280;17745;55.914;37.554;2024-01-07T06:48:00;99766.78;;;-21.87;47.77
31088;BME280;17745;55.914;37.554;2024-01-07T06:51:05;99776.75;;;-21.83;47.64
31088;BME280;17745;55.914;37.554;2024-01-07T06:53:40;99770.00;;;-21.81;47.63
31088;BME280;17745;55.914;37.554;2024-01-07T06:56:18;99776.81;;;-21.87;47.59
31088;BME280;17745;55.914;37.554;2024-01-07T06:59:18;99786.03;;;-21.86;47.63
31088;BME280;17745;55.914;37.554;2024-01-07T07:01:58;99788.47;;;-21.82;47.61
31088;BME280;17745;55.914;37.554;2024-01-07T07:13:43;99818.37;;;-21.70;47.21
31088;BME280;17745;55.914;37.554;2024-01-07T07:16:17;99826.78;;;-21.71;47.00
31088;BME280;17745;55.914;37.554;2024-01-07T07:18:49;99831.88;;;-21.76;46.90
31088;BME280;17745;55.914;37.554;2024-01-07T07:24:50;99837.03;;;-21.82;47.03
31088;BME280;17745;55.914;37.554;2024-01-07T07:27:51;99842.16;;;-21.87;47.33
31088;BME280;17745;55.914;37.554;2024-01-07T07:33:29;99855.72;;;-21.95;47.16
31088;BME280;17745;55.914;37.554;2024-01-07T07:36:51;99863.19;;;-21.92;47.20
31088;BME280;17745;55.914;37.554;2024-01-07T07:39:21;99863.94;;;-21.87;47.26
31088;BME280;17745;55.914;37.554;2024-01-07T07:41:59;99868.06;;;-21.84;47.19
31088;BME280;17745;55.914;37.554;2024-01-07T07:44:31;99868.94;;;-21.86;47.30
31088;BME280;17745;55.914;37.554;2024-01-07T07:47:00;99879.53;;;-21.71;47.30
31088;BME280;17745;55.914;37.554;2024-01-07T07:49:30;99883.47;;;-21.61;47.19
31088;BME280;17745;55.914;37.554;2024-01-07T07:52:06;99884.03;;;-21.46;47.23
31088;BME280;17745;55.914;37.554;2024-01-07T07:54:36;99888.78;;;-21.34;47.34
31088;BME280;17745;55.914;37.554;2024-01-07T07:57:14;99891.12;;;-21.24;47.52
31088;BME280;17745;55.914;37.554;2024-01-07T07:59:44;99890.94;;;-21.17;47.30
31088;BME280;17745;55.914;37.554;2024-01-07T08:02:16;99891.81;;;-21.18;47.17
31088;BME280;17745;55.914;37.554;2024-01-07T08:04:46;99897.59;;;-21.14;47.05
31088;BME280;17745;55.914;37.554;2024-01-07T08:07:14;99898.56;;;-21.20;47.12
31088;BME280;17745;55.914;37.554;2024-01-07T08:09:45;99904.38;;;-21.18;46.98
31088;BME280;17745;55.914;37.554;2024-01-07T08:12:15;99908.91;;;-21.34;47.11
31088;BME280;17745;55.914;37.554;2024-01-07T08:14:42;99898.19;;;-21.42;46.96
31088;BME280;17745;55.914;37.554;2024-01-07T08:17:13;99900.84;;;-21.50;46.94
31088;BME280;17745;55.914;37.554;2024-01-07T08:19:43;99907.59;;;-21.52;47.00
31088;BME280;17745;55.914;37.554;2024-01-07T08:29:15;99905.75;;;-21.44;47.07
31088;BME280;17745;55.914;37.554;2024-01-07T08:32:08;99916.66;;;-21.43;47.22
31088;BME280;17745;55.914;37.554;2024-01-07T08:41:54;99919.31;;;-21.51;47.33
31088;BME280;17745;55.914;37.554;2024-01-07T08:47:30;99940.72;;;-21.33;47.22
31088;BME280;17745;55.914;37.554;2024-01-07T08:50:19;99938.22;;;-21.33;47.41
31088;BME280;17745;55.914;37.554;2024-01-07T08:53:29;99942.06;;;-21.15;47.42
31088;BME280;17745;55.914;37.554;2024-01-07T08:56:49;99942.88;;;-21.14;47.34
31088;BME280;17745;55.914;37.554;2024-01-07T09:00:20;99939.47;;;-21.13;47.28
31088;BME280;17745;55.914;37.554;2024-01-07T09:06:37;99944.78;;;-20.86;47.02
31088;BME280;17745;55.914;37.554;2024-01-07T09:13:50;99946.53;;;-20.53;47.04
31088;BME280;17745;55.914;37.554;2024-01-07T09:17:02;99955.22;;;-20.31;47.13
31088;BME280;17745;55.914;37.554;2024-01-07T09:19:46;99963.37;;;-20.19;47.07
31088;BME280;17745;55.914;37.554;2024-01-07T09:22:32;99958.25;;;-20.16;47.00
31088;BME280;17745;55.914;37.554;2024-01-07T09:25:06;99954.94;;;-20.18;46.89
31088;BME280;17745;55.914;37.554;2024-01-07T09:27:59;99957.31;;;-20.14;46.73
31088;BME280;17745;55.914;37.554;2024-01-07T09:30:55;99966.41;;;-20.06;46.80
31088;BME280;17745;55.914;37.554;2024-01-07T09:33:31;99951.97;;;-20.01;46.75
31088;BME280;17745;55.914;37.554;2024-01-07T09:36:26;99951.12;;;-20.00;46.70
31088;BME280;17745;55.914;37.554;2024-01-07T10:17:19;99974.47;;;-19.62;46.96
31088;BME280;17745;55.914;37.554;2024-01-07T10:20:10;99969.22;;;-19.54;46.96
31088;BME280;17745;55.914;37.554;2024-01-07T10:23:05;99976.59;;;-19.46;46.97
31088;BME280;17745;55.914;37.554;2024-01-07T10:25:56;99974.84;;;-19.44;47.08
31088;BME280;17745;55.914;37.554;2024-01-07T10:28:59;99973.69;;;-19.34;47.02
31088;BME280;17745;55.914;37.554;2024-01-07T11:37:23;99982.59;;;-18.63;47.60
31088;BME280;17745;55.914;37.554;2024-01-07T11:39:58;99989.53;;;-18.70;47.79
31088;BME280;17745;55.914;37.554;2024-01-07T11:42:37;99995.59;;;-18.76;47.76
31088;BME280;17745;55.914;37.554;2024-01-07T11:48:28;100003.94;;;-18.74;47.77
31088;BME280;17745;55.914;37.554;2024-01-07T17:50:13;100264.97;;;-21.74;51.58
31088;BME280;17745;55.914;37.554;2024-01-07T17:53:04;100248.28;;;-21.79;51.53
31088;BME280;17745;55.914;37.554;2024-01-07T18:02:59;100252.62;;;-21.94;51.89
31088;BME280;17745;55.914;37.554;2024-01-07T22:15:58;100307.84;;;-21.28;51.30
31088;BME280;17745;55.914;37.554;2024-01-07T22:26:13;100303.75;;;-21.34;51.29
31088;BME280;17745;55.914;37.554;2024-01-07T22:32:31;100305.59;;;-21.45;51.19
31088;BME280;17745;55.914;37.554;2024-01-07T22:41:48;100294.78;;;-21.53;51.15
31088;BME280;17745;55.914;37.554;2024-01-07T22:44:50;100296.56;;;-21.59;51.11
31088;BME280;17745;55.914;37.554;2024-01-07T23:22:59;100290.75;;;-21.64;50.96
31088;BME280;17745;55.914;37.554;2024-01-07T23:26:23;100295.78;;;-21.62;50.97
31088;BME280;17745;55.914;37.554;2024-01-07T23:32:55;100297.47;;;-21.63;50.89
31088;BME280;17745;55.914;37.554;2024-01-07T23:36:14;100304.22;;;-21.66;50.87
31088;BME280;17745;55.914;37.554;2024-01-07T23:55:39;100319.22;;;-21.62;50.72
31088;BME280;17745;55.914;37.554;2024-01-07T23:58:39;100321.72;;;-21.60;50.72
